createdAt,value
2022-10-14T00:02:25.728Z,3.85
2022-10-14T00:04:52.072Z,3.38
2022-10-14T00:07:18.573Z,5.70
2022-10-14T00:09:46.389Z,5.00
2022-10-14T00:12:12.760Z,5.43
2022-10-14T00:14:39.409Z,5.60
2022-10-14T00:17:05.800Z,5.72
2022-10-14T00:19:32.119Z,4.70
2022-10-14T00:21:58.514Z,3.92
2022-10-14T00:24:24.807Z,4.15
2022-10-14T00:26:51.108Z,3.78
2022-10-14T00:29:20.404Z,3.60
2022-10-14T00:31:47.307Z,2.97
2022-10-14T00:34:15.843Z,3.60
2022-10-14T00:36:42.691Z,3.35
2022-10-14T00:39:09.321Z,3.95
2022-10-14T00:41:35.908Z,3.40
2022-10-14T00:44:07.371Z,4.50
2022-10-14T00:46:41.063Z,5.40
2022-10-14T00:49:12.832Z,4.25
2022-10-14T00:51:39.992Z,6.85
2022-10-14T00:54:06.484Z,4.97
2022-10-14T00:56:33.318Z,6.63
2022-10-14T00:59:00.110Z,4.00
2022-10-14T01:01:26.448Z,4.15
2022-10-14T01:03:52.759Z,2.15
2022-10-14T01:06:37.456Z,5.53
2022-10-14T01:09:06.076Z,5.35
2022-10-14T01:11:32.366Z,6.32
2022-10-14T01:14:22.086Z,5.38
2022-10-14T01:17:06.274Z,4.82
2022-10-14T01:19:51.538Z,4.85
2022-10-14T01:22:30.032Z,6.07
2022-10-14T01:25:02.962Z,6.60
2022-10-14T01:27:35.392Z,6.18
2022-10-14T01:30:20.975Z,4.43
2022-10-14T01:32:47.265Z,5.97
2022-10-14T01:35:23.803Z,8.52
2022-10-14T01:38:01.072Z,10.50
2022-10-14T01:40:35.374Z,8.38
2022-10-14T01:43:02.450Z,8.02
2022-10-14T01:45:30.596Z,7.20
2022-10-14T01:47:57.525Z,9.68
2022-10-14T01:50:25.013Z,8.32
2022-10-14T01:53:13.046Z,10.85
2022-10-14T01:55:42.064Z,12.07
2022-10-14T01:58:09.866Z,11.68
2022-10-14T02:00:36.442Z,12.35
2022-10-14T02:03:02.752Z,12.85
2022-10-14T02:05:29.066Z,10.10
2022-10-14T02:08:10.714Z,7.78
2022-10-14T02:10:37.001Z,7.60
2022-10-14T02:13:11.579Z,9.57
2022-10-14T02:15:41.931Z,9.73
2022-10-14T02:18:11.101Z,14.32
2022-10-14T02:20:41.400Z,8.50
2022-10-14T02:23:07.689Z,6.95
2022-10-14T02:25:35.899Z,12.52
2022-10-14T02:28:02.987Z,9.13
2022-10-14T02:30:30.977Z,11.45
2022-10-14T02:32:58.498Z,12.52
2022-10-14T02:35:25.157Z,9.55
2022-10-14T02:37:52.240Z,10.30
2022-10-14T02:40:23.094Z,7.70
2022-10-14T02:42:49.388Z,14.25
2022-10-14T02:45:16.050Z,12.98
2022-10-14T02:47:42.759Z,9.18
2022-10-14T02:50:09.388Z,10.80
2022-10-14T02:52:35.664Z,6.43
2022-10-14T02:55:01.990Z,15.20
2022-10-14T02:57:28.292Z,11.30
2022-10-14T02:59:54.607Z,15.15
2022-10-14T03:02:21.140Z,11.07
2022-10-14T03:04:47.582Z,14.15
2022-10-14T03:07:13.929Z,9.77
2022-10-14T03:09:40.314Z,12.60
2022-10-14T03:12:06.920Z,20.13
2022-10-14T03:14:33.222Z,15.80
2022-10-14T03:16:59.571Z,12.10
2022-10-14T03:19:25.867Z,15.00
2022-10-14T03:21:52.226Z,13.65
2022-10-14T03:24:18.536Z,15.32
2022-10-14T03:26:44.839Z,11.95
2022-10-14T03:29:11.170Z,14.68
2022-10-14T03:31:37.529Z,16.55
2022-10-14T03:34:03.921Z,8.23
2022-10-14T03:36:30.217Z,15.77
2022-10-14T03:38:56.645Z,14.57
2022-10-14T03:41:23.061Z,16.67
2022-10-14T03:43:49.359Z,16.38
2022-10-14T03:46:16.065Z,12.45
2022-10-14T03:48:42.550Z,15.88
2022-10-14T03:51:08.963Z,20.63
2022-10-14T03:53:35.260Z,20.75
2022-10-14T03:56:01.773Z,18.33
2022-10-14T03:58:28.068Z,16.45
2022-10-14T04:00:54.353Z,18.88
2022-10-14T04:03:20.673Z,19.95
2022-10-14T04:05:47.093Z,19.08
2022-10-14T04:08:13.410Z,16.60
2022-10-14T04:10:39.783Z,23.15
2022-10-14T04:13:06.152Z,25.10
2022-10-14T04:15:32.484Z,23.30
2022-10-14T04:17:58.771Z,18.35
2022-10-14T04:20:25.102Z,20.10
2022-10-14T04:22:51.383Z,19.73
2022-10-14T04:25:17.934Z,24.90
2022-10-14T04:27:44.242Z,18.60
2022-10-14T04:30:10.931Z,20.45
2022-10-14T04:32:37.330Z,23.73
2022-10-14T04:35:03.812Z,18.80
2022-10-14T04:37:30.129Z,22.50
2022-10-14T04:39:56.425Z,19.02
2022-10-14T04:42:23.451Z,23.25
2022-10-14T04:44:50.634Z,21.13
2022-10-14T04:47:16.934Z,15.13
2022-10-14T04:49:43.223Z,19.77
2022-10-14T04:52:09.519Z,18.58
2022-10-14T04:54:35.798Z,20.30
2022-10-14T04:57:02.660Z,15.90
2022-10-14T04:59:29.024Z,13.75
2022-10-14T05:01:55.373Z,14.13
2022-10-14T05:04:21.861Z,12.13
2022-10-14T05:06:48.266Z,13.90
2022-10-14T05:09:14.596Z,11.98
2022-10-14T05:11:40.948Z,12.52
2022-10-14T05:14:07.269Z,12.88
2022-10-14T05:16:33.596Z,10.18
2022-10-14T05:18:59.867Z,8.00
2022-10-14T05:21:26.228Z,10.60
2022-10-14T05:23:52.669Z,7.88
2022-10-14T05:26:19.136Z,9.98
2022-10-14T05:28:45.566Z,9.63
2022-10-14T05:31:12.060Z,5.82
2022-10-14T05:33:38.385Z,7.28
2022-10-14T05:36:04.767Z,9.77
2022-10-14T05:38:31.536Z,8.40
2022-10-14T05:40:58.075Z,9.05
2022-10-14T05:43:29.250Z,8.60
2022-10-14T05:45:58.443Z,8.23
2022-10-14T05:48:25.859Z,10.50
2022-10-14T05:50:52.523Z,10.00
2022-10-14T05:53:18.886Z,7.25
2022-10-14T05:55:45.223Z,8.70
2022-10-14T05:58:11.522Z,7.38
2022-10-14T06:00:37.896Z,7.20
2022-10-14T06:03:04.320Z,8.00
2022-10-14T06:05:30.719Z,7.20
2022-10-14T06:07:57.084Z,6.75
2022-10-14T06:10:23.400Z,7.78
2022-10-14T06:12:49.684Z,8.02
2022-10-14T06:15:15.964Z,6.18
2022-10-14T06:17:42.320Z,7.28
2022-10-14T06:20:08.811Z,5.65
2022-10-14T06:22:35.145Z,7.63
2022-10-14T06:25:04.296Z,7.55
2022-10-14T06:27:31.090Z,7.35
2022-10-14T06:29:57.469Z,3.08
2022-10-14T06:32:24.191Z,6.40
2022-10-14T06:34:50.894Z,7.38
2022-10-14T06:37:17.188Z,7.18
2022-10-14T06:39:45.076Z,6.68
2022-10-14T06:42:13.154Z,6.07
2022-10-14T06:44:39.646Z,8.75
2022-10-14T06:47:06.738Z,8.75
2022-10-14T06:49:33.028Z,9.70
2022-10-14T06:51:59.361Z,9.20
2022-10-14T06:54:25.659Z,5.38
2022-10-14T06:56:51.994Z,13.80
2022-10-14T06:59:18.314Z,7.80
2022-10-14T07:01:44.760Z,13.88
2022-10-14T07:04:11.213Z,14.07
2022-10-14T07:06:38.135Z,13.65
2022-10-14T07:09:04.809Z,14.70
2022-10-14T07:11:31.172Z,15.93
2022-10-14T07:13:57.569Z,12.80
2022-10-14T07:16:23.909Z,13.88
2022-10-14T07:18:50.280Z,15.75
2022-10-14T07:21:16.570Z,11.07
2022-10-14T07:23:42.853Z,14.85
2022-10-14T07:26:09.256Z,13.95
2022-10-14T07:28:35.645Z,14.32
2022-10-14T07:31:06.341Z,13.65
2022-10-14T07:33:32.960Z,13.25
2022-10-14T07:36:03.978Z,12.70
2022-10-14T07:38:30.468Z,12.98
2022-10-14T07:41:00.756Z,14.30
2022-10-14T07:43:27.444Z,13.73
2022-10-14T07:46:00.335Z,11.98
2022-10-14T07:48:32.669Z,13.80
2022-10-14T07:51:05.909Z,14.93
2022-10-14T07:53:32.500Z,9.27
2022-10-14T07:55:59.045Z,13.75
2022-10-14T07:58:29.129Z,13.70
2022-10-14T08:00:56.170Z,11.85
2022-10-14T08:03:23.556Z,11.45
2022-10-14T08:05:50.326Z,13.35
2022-10-14T08:08:18.071Z,13.05
2022-10-14T08:10:44.882Z,11.98
2022-10-14T08:13:11.275Z,13.50
2022-10-14T08:15:40.544Z,11.90
2022-10-14T08:18:11.835Z,13.75
2022-10-14T08:20:38.118Z,12.90
2022-10-14T08:23:04.457Z,11.50
2022-10-14T08:25:30.830Z,11.73
2022-10-14T08:27:58.508Z,10.90
2022-10-14T08:30:25.368Z,10.25
2022-10-14T08:32:51.734Z,9.95
2022-10-14T08:35:18.195Z,10.10
2022-10-14T08:37:44.514Z,7.85
2022-10-14T08:40:15.311Z,9.38
2022-10-14T08:42:54.438Z,8.70
2022-10-14T08:45:23.523Z,8.52
2022-10-14T08:47:52.404Z,8.20
2022-10-14T08:50:21.815Z,7.55
2022-10-14T08:52:57.241Z,7.57
2022-10-14T08:55:37.280Z,7.47
2022-10-14T08:58:21.901Z,8.15
2022-10-14T09:00:50.770Z,6.20
2022-10-14T09:03:33.375Z,7.47
2022-10-14T09:06:02.192Z,6.57
2022-10-14T09:08:32.592Z,7.18
2022-10-14T09:10:59.141Z,7.18
2022-10-14T09:13:36.473Z,5.25
2022-10-14T09:16:17.536Z,6.60
2022-10-14T09:18:57.167Z,6.45
2022-10-14T09:21:47.997Z,6.00
2022-10-14T09:24:37.422Z,6.45
2022-10-14T09:27:10.933Z,6.40
2022-10-14T09:29:43.326Z,6.70
2022-10-14T09:32:12.775Z,6.93
2022-10-14T09:34:40.471Z,6.07
2022-10-14T09:37:22.885Z,6.63
2022-10-14T09:39:49.973Z,6.93
2022-10-14T09:42:21.406Z,7.00
2022-10-14T09:45:08.323Z,5.40
2022-10-14T09:47:41.960Z,7.55
2022-10-14T09:50:09.563Z,5.80
2022-10-14T09:52:38.062Z,6.38
2022-10-14T09:55:05.184Z,5.57
2022-10-14T09:57:31.967Z,5.50
2022-10-14T10:00:03.896Z,5.00
2022-10-14T10:02:44.611Z,5.05
2022-10-14T10:05:21.813Z,5.38
2022-10-14T10:08:01.445Z,5.15
2022-10-14T10:10:30.685Z,5.93
2022-10-14T10:12:57.744Z,5.40
2022-10-14T10:15:24.406Z,5.32
2022-10-14T10:17:51.241Z,5.40
2022-10-14T10:20:33.574Z,5.80
2022-10-14T10:23:20.005Z,5.20
2022-10-14T10:38:00.584Z,4.88
2022-10-14T10:40:26.876Z,4.72
2022-10-14T10:43:13.660Z,4.70
2022-10-14T10:45:40.058Z,5.43
2022-10-14T10:48:12.399Z,4.50
2022-10-14T10:50:52.611Z,4.63
2022-10-14T10:53:22.891Z,4.47
2022-10-14T10:55:54.041Z,5.63
2022-10-14T10:58:27.655Z,5.15
2022-10-14T11:01:01.829Z,5.68
2022-10-14T11:03:37.582Z,6.50
2022-10-14T11:06:10.081Z,5.03
2022-10-14T11:08:55.326Z,6.25
2022-10-14T11:11:57.063Z,6.70
2022-10-14T11:14:38.198Z,3.40
2022-10-14T11:17:10.850Z,3.92
2022-10-14T11:19:47.470Z,5.85
2022-10-14T11:22:20.262Z,5.85
2022-10-14T11:24:54.561Z,3.80
2022-10-14T11:27:28.409Z,4.57
2022-10-14T11:30:16.581Z,3.17
2022-10-14T11:33:03.125Z,3.65
2022-10-14T11:35:29.444Z,2.20
2022-10-14T11:38:03.742Z,2.63
2022-10-14T11:40:42.002Z,2.22
2022-10-14T11:43:26.963Z,2.40
2022-10-14T11:45:56.089Z,2.15
2022-10-14T11:48:31.467Z,1.73
2022-10-14T11:51:19.180Z,2.63
2022-10-14T11:53:52.775Z,1.55
2022-10-14T11:56:24.227Z,1.80
2022-10-14T11:58:51.926Z,1.63
2022-10-14T12:01:20.471Z,2.03
2022-10-14T12:04:09.802Z,1.20
2022-10-14T12:06:46.548Z,1.50
2022-10-14T12:09:15.713Z,1.60
2022-10-14T12:12:03.337Z,1.98
2022-10-14T12:14:29.632Z,1.35
2022-10-14T12:16:58.613Z,1.38
2022-10-14T12:19:26.308Z,1.00
2022-10-14T12:21:55.640Z,0.80
2022-10-14T12:24:24.819Z,1.15
2022-10-14T12:26:52.637Z,0.90
2022-10-14T12:29:20.529Z,0.70
2022-10-14T12:32:05.060Z,1.00
2022-10-14T12:34:32.625Z,1.40
2022-10-14T12:36:58.967Z,1.05
2022-10-14T12:39:32.213Z,0.82
2022-10-14T12:42:06.843Z,0.77
2022-10-14T12:44:35.391Z,0.88
2022-10-14T12:47:02.690Z,1.00
2022-10-14T12:49:30.240Z,1.40
2022-10-14T12:51:58.527Z,0.82
2022-10-14T12:54:25.378Z,1.13
2022-10-14T12:57:00.340Z,0.63
2022-10-14T12:59:31.433Z,0.88
2022-10-14T13:02:04.193Z,0.82
2022-10-14T13:04:31.908Z,0.90
2022-10-14T13:07:39.873Z,1.10
2022-10-14T13:10:26.130Z,1.50
2022-10-14T13:12:52.529Z,0.90
2022-10-14T13:15:57.592Z,0.90
2022-10-14T13:18:53.324Z,0.75
2022-10-14T13:21:31.871Z,0.97
2022-10-14T13:24:01.877Z,0.80
2022-10-14T13:26:33.848Z,1.02
2022-10-14T13:29:03.353Z,0.45
2022-10-14T13:31:35.964Z,0.80
2022-10-14T13:34:13.075Z,1.33
2022-10-14T13:36:58.063Z,1.65
2022-10-14T13:39:24.709Z,1.42
2022-10-14T13:41:51.443Z,1.45
2022-10-14T13:44:21.689Z,1.33
2022-10-14T13:46:49.085Z,0.63
2022-10-14T13:49:17.123Z,0.98
2022-10-14T13:51:43.738Z,1.02
2022-10-14T13:54:23.408Z,0.88
2022-10-14T14:00:39.224Z,0.55
2022-10-14T14:02:33.957Z,0.93
2022-10-14T14:05:01.404Z,0.70
2022-10-14T14:10:20.621Z,0.70
2022-10-14T14:12:47.191Z,0.70
2022-10-14T14:15:23.850Z,0.60
2022-10-14T14:17:50.239Z,0.55
2022-10-14T14:20:19.354Z,0.98
2022-10-14T14:22:45.649Z,0.73
2022-10-14T14:26:01.289Z,0.63
2022-10-14T14:28:02.628Z,0.60
2022-10-14T14:30:33.465Z,0.50
2022-10-14T14:33:01.484Z,0.68
2022-10-14T14:35:28.422Z,0.65
2022-10-14T14:37:56.412Z,0.77
2022-10-14T14:40:26.811Z,1.00
2022-10-14T14:42:57.663Z,0.95
2022-10-14T14:45:29.200Z,0.95
2022-10-14T14:47:57.029Z,1.10
2022-10-14T14:50:30.781Z,0.93
2022-10-14T14:53:00.667Z,1.10
2022-10-14T14:55:33.003Z,0.88
2022-10-14T14:58:00.875Z,1.00
2022-10-14T15:00:27.243Z,0.75
2022-10-14T15:02:59.837Z,0.60
2022-10-14T15:05:26.779Z,0.82
2022-10-14T15:07:53.278Z,0.65
2022-10-14T15:10:24.448Z,0.60
2022-10-14T15:12:53.915Z,0.70
2022-10-14T15:15:31.079Z,0.50
2022-10-14T15:18:11.944Z,1.00
2022-10-14T15:20:38.328Z,0.77
2022-10-14T15:23:23.164Z,1.05
2022-10-14T15:26:12.500Z,0.75
2022-10-14T15:28:38.861Z,0.60
2022-10-14T15:31:05.902Z,1.10
2022-10-14T15:33:32.478Z,0.70
2022-10-14T15:36:02.364Z,0.73
2022-10-14T15:38:29.271Z,0.93
2022-10-14T15:40:55.821Z,0.80
2022-10-14T15:43:26.380Z,0.90
2022-10-14T15:46:12.393Z,0.93
2022-10-14T15:48:40.381Z,0.70
2022-10-14T15:51:06.927Z,0.90
2022-10-14T15:53:33.648Z,0.90
2022-10-14T15:56:00.339Z,0.98
2022-10-14T15:58:26.880Z,0.90
2022-10-14T16:00:53.728Z,0.85
2022-10-14T16:03:20.255Z,1.08
2022-10-14T16:05:46.609Z,1.00
2022-10-14T16:08:16.807Z,1.10
2022-10-14T16:10:44.005Z,1.13
2022-10-14T16:13:14.048Z,0.82
2022-10-14T16:15:52.018Z,1.27
2022-10-14T16:18:18.323Z,1.02
2022-10-14T16:20:45.229Z,1.05
2022-10-14T16:23:15.322Z,1.10
2022-10-14T16:25:44.488Z,1.60
2022-10-14T16:28:11.997Z,1.35
2022-10-14T16:30:43.875Z,1.15
2022-10-14T16:35:37.772Z,2.00
2022-10-14T16:38:04.062Z,1.73
2022-10-14T16:40:35.722Z,1.73
2022-10-14T16:43:03.215Z,1.33
2022-10-14T16:45:29.538Z,1.55
2022-10-14T16:47:55.854Z,1.20
2022-10-14T16:50:22.536Z,2.13
2022-10-14T16:53:07.861Z,1.58
2022-10-14T16:55:34.275Z,1.60
2022-10-14T16:58:00.818Z,1.92
2022-10-14T17:00:27.169Z,2.03
2022-10-14T17:02:54.315Z,1.90
2022-10-14T17:05:20.638Z,2.13
2022-10-14T17:07:46.999Z,2.35
2022-10-14T17:10:13.307Z,2.20
2022-10-14T17:12:39.760Z,2.17
2022-10-14T17:15:06.355Z,1.88
2022-10-14T17:17:32.693Z,2.55
2022-10-14T17:19:59.059Z,3.15
2022-10-14T17:22:25.621Z,2.55
2022-10-14T17:24:52.088Z,2.15
2022-10-14T17:27:19.605Z,1.52
2022-10-14T17:29:45.996Z,2.20
2022-10-14T17:32:12.481Z,3.08
2022-10-14T17:34:38.832Z,2.88
2022-10-14T17:37:05.401Z,2.65
2022-10-14T17:39:31.868Z,3.08
2022-10-14T17:41:58.389Z,2.75
2022-10-14T17:44:24.837Z,3.60
2022-10-14T17:46:51.222Z,3.20
2022-10-14T17:49:17.585Z,2.85
2022-10-14T17:51:44.835Z,3.45
2022-10-14T17:54:12.257Z,3.42
2022-10-14T17:56:38.946Z,3.20
2022-10-14T17:59:07.421Z,4.05
2022-10-14T18:02:01.057Z,3.75
2022-10-14T18:06:53.993Z,4.40
2022-10-14T18:09:20.341Z,4.30
2022-10-14T18:14:34.032Z,4.82
2022-10-14T18:17:00.375Z,5.00
2022-10-14T18:19:27.068Z,4.93
2022-10-14T18:21:53.436Z,5.32
2022-10-14T18:24:20.201Z,5.75
2022-10-14T18:26:49.053Z,5.82
2022-10-14T18:29:15.350Z,6.00
2022-10-14T18:31:41.793Z,6.60
2022-10-14T18:34:10.557Z,7.22
2022-10-14T18:36:37.193Z,6.35
2022-10-14T18:39:04.823Z,7.10
2022-10-14T18:41:31.173Z,7.80
2022-10-14T18:43:58.111Z,6.93
2022-10-14T18:46:27.168Z,7.45
2022-10-14T18:48:54.787Z,7.70
2022-10-14T18:51:25.576Z,7.70
2022-10-14T18:53:53.265Z,7.38
2022-10-14T18:56:21.522Z,8.10
2022-10-14T18:58:49.846Z,7.88
2022-10-14T19:01:16.652Z,7.43
2022-10-14T19:03:43.622Z,4.90
2022-10-14T19:06:11.081Z,7.93
2022-10-14T19:08:38.385Z,8.70
2022-10-14T19:11:05.585Z,8.48
2022-10-14T19:13:32.128Z,8.05
2022-10-14T19:16:05.836Z,8.38
2022-10-14T19:18:32.154Z,8.25
2022-10-14T19:21:05.374Z,8.55
2022-10-14T19:23:31.931Z,8.15
2022-10-14T19:25:59.208Z,8.43
2022-10-14T19:28:25.851Z,7.03
2022-10-14T19:30:52.182Z,8.70
2022-10-14T19:33:18.476Z,8.70
2022-10-14T19:35:44.783Z,8.52
2022-10-14T19:38:11.081Z,8.48
2022-10-14T19:40:37.405Z,6.65
2022-10-14T19:43:03.727Z,9.95
2022-10-14T19:45:30.142Z,9.15
2022-10-14T19:47:56.527Z,7.75
2022-10-14T19:50:22.837Z,10.35
2022-10-14T19:52:49.179Z,9.38
2022-10-14T19:55:15.494Z,10.35
2022-10-14T19:57:41.855Z,10.05
2022-10-14T20:00:08.615Z,7.85
2022-10-14T20:02:34.952Z,10.55
2022-10-14T20:05:01.246Z,9.30
2022-10-14T20:07:27.632Z,10.10
2022-10-14T20:09:54.000Z,10.18
2022-10-14T20:12:20.504Z,10.15
2022-10-14T20:14:47.089Z,7.10
2022-10-14T20:17:13.447Z,8.18
2022-10-14T20:19:39.851Z,10.60
2022-10-14T20:22:06.264Z,8.95
2022-10-14T20:24:32.656Z,10.02
2022-10-14T20:26:59.024Z,6.97
2022-10-14T20:29:25.302Z,6.47
2022-10-14T20:31:51.711Z,9.23
2022-10-14T20:34:18.244Z,6.75
2022-10-14T20:36:44.541Z,8.55
2022-10-14T20:39:11.163Z,8.38
2022-10-14T20:41:37.559Z,8.20
2022-10-14T20:44:03.878Z,7.45
2022-10-14T20:46:30.169Z,8.13
2022-10-14T20:48:57.056Z,7.80
2022-10-14T20:51:24.421Z,4.82
2022-10-14T20:53:58.487Z,5.70
2022-10-14T20:56:30.076Z,6.07
2022-10-14T20:59:00.703Z,4.95
2022-10-14T21:01:28.192Z,6.05
2022-10-14T21:03:55.250Z,6.22
2022-10-14T21:06:22.765Z,6.10
2022-10-14T21:08:49.535Z,5.82
2022-10-14T21:11:16.900Z,6.28
2022-10-14T21:13:47.288Z,6.25
2022-10-14T21:16:14.694Z,4.22
2022-10-14T21:18:44.411Z,3.92
2022-10-14T21:21:14.288Z,5.20
2022-10-14T21:23:43.310Z,5.82
2022-10-14T21:26:09.844Z,5.55
2022-10-14T21:28:36.278Z,6.05
2022-10-14T21:31:06.430Z,5.90
2022-10-14T21:33:32.807Z,4.88
2022-10-14T21:36:12.978Z,6.20
2022-10-14T21:38:39.606Z,3.67
2022-10-14T21:41:06.441Z,7.32
2022-10-14T21:43:34.484Z,6.82
2022-10-14T21:46:01.688Z,7.93
2022-10-14T21:48:27.975Z,7.35
2022-10-14T21:51:04.267Z,7.28
2022-10-14T21:53:31.238Z,5.95
2022-10-14T21:55:57.639Z,8.00
2022-10-14T21:58:24.234Z,7.57
2022-10-14T22:00:50.627Z,5.78
2022-10-14T22:03:17.749Z,4.43
2022-10-14T22:05:44.345Z,6.75
2022-10-14T22:08:10.647Z,5.60
2022-10-14T22:10:44.885Z,7.85
2022-10-14T22:13:11.526Z,8.52
2022-10-14T22:15:41.676Z,7.00
2022-10-14T22:18:08.321Z,7.82
2022-10-14T22:20:34.613Z,8.27
2022-10-14T22:23:00.955Z,8.50
2022-10-14T22:25:27.231Z,7.93
2022-10-14T22:27:53.560Z,6.80
2022-10-14T22:30:19.930Z,8.10
2022-10-14T22:32:46.255Z,6.60
2022-10-14T22:35:12.550Z,8.55
2022-10-14T22:37:38.954Z,7.72
2022-10-14T22:40:05.503Z,7.97
2022-10-14T22:42:31.981Z,8.13
2022-10-14T22:44:58.319Z,6.43
2022-10-14T22:47:25.065Z,9.15
2022-10-14T22:49:51.771Z,7.72
2022-10-14T22:52:18.060Z,8.20
2022-10-14T22:54:44.490Z,8.82
2022-10-14T22:57:10.897Z,9.38
2022-10-14T22:59:37.268Z,7.88
2022-10-14T23:02:03.572Z,8.20
2022-10-14T23:04:30.504Z,7.65
2022-10-14T23:07:03.011Z,7.35
2022-10-14T23:09:32.383Z,8.63
2022-10-14T23:11:58.751Z,6.13
2022-10-14T23:14:25.104Z,9.63
2022-10-14T23:16:51.562Z,8.48
2022-10-14T23:19:17.851Z,7.93
2022-10-14T23:21:44.482Z,10.82
2022-10-14T23:24:11.708Z,10.57
2022-10-14T23:26:38.075Z,7.78
2022-10-14T23:29:06.172Z,11.07
2022-10-14T23:31:33.358Z,9.48
2022-10-14T23:34:00.709Z,10.98
2022-10-14T23:36:27.305Z,10.32
2022-10-14T23:38:53.654Z,12.07
2022-10-14T23:41:22.077Z,12.77
2022-10-14T23:43:48.970Z,11.80
2022-10-14T23:46:15.519Z,12.32
2022-10-14T23:48:41.809Z,10.57
2022-10-14T23:51:08.232Z,11.57
2022-10-14T23:53:34.878Z,14.07
2022-10-14T23:56:01.541Z,13.05
2022-10-14T23:58:31.329Z,12.02
